Time;durP1;ratioP1;P1;durP2;ratioP2;P2;SDS_P1;SDS_P2;PMS_P1;PMS_P2;Temp;Humidity;BMP_temperature;BMP_pressure;BME280_temperature;BME280_humidity;BME280_pressure;Samples;Min_cycle;Max_cycle;Signal;HPM_P1;HPM_P2
2023/01/15 00:03:31;;;;;;;;;;;;;;;5.49;100;99760.25;;;;-76
2023/01/15 00:13:36;;;;;;;;;;;;;;;5.48;100;99758.88;;;;-78
2023/01/15 00:18:20;;;;;;;7.1;1;;;;;;;;;;;;;-76
2023/01/15 00:18:36;;;;;;;;;;;;;;;5.48;100;99760.67;;;;-77
2023/01/15 00:28:46;;;;;;;;;;;;;;;5.48;100;99754.91;;;;-76
2023/01/15 00:33:27;;;;;;;;;;;;;;;5.47;100;99755.56;;;;-76
2023/01/15 00:38:38;;;;;;;;;;;;;;;5.43;100;99744.34;;;;-76
2023/01/15 00:43:34;;;;;;;;;;;;;;;5.4;100;99756.44;;;;-76
2023/01/15 00:48:35;;;;;;;6.6;1.1;;;;;;;;;;;;;-76
2023/01/15 00:48:58;;;;;;;;;;;;;;;5.38;100;99761.02;;;;-77
2023/01/15 00:53:38;;;;;;;;;;;;;;;5.37;100;99751.64;;;;-77
2023/01/15 00:58:32;;;;;;;;;;;;;;;5.36;100;99753.31;;;;-77
2023/01/15 01:03:37;;;;;;;;;;;;;;;5.33;100;99764.26;;;;-77
2023/01/15 01:08:48;;;;;;;;;;;;;;;;;;;;;
2023/01/15 01:13:30;;;;;;;;;;;;;;;5.31;100;99771.48;;;;-77
2023/01/15 01:18:31;;;;;;;7.9;1.2;;;;;;;;;;;;;-76
2023/01/15 01:18:52;;;;;;;;;;;;;;;5.26;100;99763.49;;;;-77
2023/01/15 01:23:35;;;;;;;;;;;;;;;5.28;100;99783.08;;;;-76
2023/01/15 01:28:26;;;;;;;;;;;;;;;5.27;100;99791.64;;;;-77
2023/01/15 01:33:33;;;;;;;;;;;;;;;5.28;100;99788.28;;;;-75
2023/01/15 01:38:33;;;;;;;;;;;;;;;5.28;100;99778.33;;;;-76
2023/01/15 01:43:46;;;;;;;;;;;;;;;5.28;100;99786.81;;;;-77
2023/01/15 01:48:27;;;;;;;8;1.1;;;;;;;;;;;;;-77
2023/01/15 01:48:54;;;;;;;;;;;;;;;5.29;100;99783.64;;;;-77
2023/01/15 01:53:34;;;;;;;;;;;;;;;5.26;100;99789.22;;;;-76
2023/01/15 01:58:35;;;;;;;;;;;;;;;5.27;100;99803.03;;;;-76
2023/01/15 02:03:45;;;;;;;;;;;;;;;5.26;100;99791.84;;;;-75
2023/01/15 02:08:38;;;;;;;;;;;;;;;5.28;100;99790.34;;;;-77
2023/01/15 02:13:44;;;;;;;;;;;;;;;5.26;100;99776.69;;;;-75
2023/01/15 02:18:28;;;;;;;8.5;1.1;;;;;;;;;;;;;-76
2023/01/15 02:19:03;;;;;;;;;;;;;;;5.23;100;99771.43;;;;-78
2023/01/15 02:23:57;;;;;;;;;;;;;;;5.24;100;99763.68;;;;-75
2023/01/15 02:28:39;;;;;;;;;;;;;;;5.25;100;99774.81;;;;-76
2023/01/15 02:33:43;;;;;;;;;;;;;;;5.23;100;99786.05;;;;-77
2023/01/15 02:38:31;;;;;;;;;;;;;;;5.22;100;99778.33;;;;-75
2023/01/15 02:43:30;;;;;;;;;;;;;;;5.22;100;99762.95;;;;-76
2023/01/15 02:48:31;;;;;;;5.6;1.1;;;;;;;;;;;;;-77
2023/01/15 02:48:51;;;;;;;;;;;;;;;5.23;100;99763.22;;;;-77
2023/01/15 02:53:30;;;;;;;;;;;;;;;5.22;100;99758.36;;;;-75
2023/01/15 02:58:33;;;;;;;;;;;;;;;5.23;100;99760.11;;;;-76
2023/01/15 03:03:42;;;;;;;;;;;;;;;5.23;100;99746.03;;;;-76
2023/01/15 03:08:31;;;;;;;;;;;;;;;5.23;100;99752.84;;;;-77
2023/01/15 03:13:39;;;;;;;;;;;;;;;5.26;100;99755.31;;;;-76
2023/01/15 03:18:25;;;;;;;4;1.1;;;;;;;;;;;;;-76
2023/01/15 03:18:49;;;;;;;;;;;;;;;5.27;100;99745.17;;;;-77
2023/01/15 03:24:10;;;;;;;;;;;;;;;5.26;100;99743.8;;;;-77
2023/01/15 03:28:29;;;;;;;;;;;;;;;5.25;100;99736.56;;;;-76
2023/01/15 03:33:29;;;;;;;;;;;;;;;5.27;100;99752.05;;;;-76
2023/01/15 03:43:46;;;;;;;;;;;;;;;5.26;100;99749.69;;;;-76
2023/01/15 03:48:34;;;;;;;7.7;1.3;;;;;;;;;;;;;-77
2023/01/15 03:48:47;;;;;;;;;;;;;;;5.21;100;99743.53;;;;-78
2023/01/15 03:53:40;;;;;;;;;;;;;;;5.22;100;99747.89;;;;-76
2023/01/15 04:03:39;;;;;;;;;;;;;;;5.24;99.75391;99743.52;;;;-76
2023/01/15 04:08:29;;;;;;;;;;;;;;;5.22;99.98047;99731.53;;;;-76
2023/01/15 04:13:27;;;;;;;;;;;;;;;5.2;100;99736.09;;;;-76
2023/01/15 04:18:22;;;;;;;6.9;0.9;;;;;;;;;;;;;-76
2023/01/15 04:18:34;;;;;;;;;;;;;;;5.21;98.66113;99734.11;;;;-77
2023/01/15 04:23:36;;;;;;;;;;;;;;;5.23;98.9043;99725.41;;;;-76
2023/01/15 04:28:26;;;;;;;;;;;;;;;5.19;99.27441;99724.88;;;;-76
2023/01/15 04:33:26;;;;;;;;;;;;;;;5.23;98.56934;99727.88;;;;-77
2023/01/15 04:38:28;;;;;;;;;;;;;;;5.22;98.94629;99740.03;;;;-75
2023/01/15 04:48:33;;;;;;;7.2;1.2;;;;;;;;;;;;;-77
2023/01/15 04:49:00;;;;;;;;;;;;;;;;;;;;;
2023/01/15 04:53:28;;;;;;;;;;;;;;;5.22;97.51172;99714.81;;;;-77
2023/01/15 04:58:29;;;;;;;;;;;;;;;5.16;97.40137;99721.98;;;;-77
2023/01/15 05:03:30;;;;;;;;;;;;;;;5.14;97.52539;99720.06;;;;-76
2023/01/15 05:08:26;;;;;;;;;;;;;;;5.16;96.8252;99711.28;;;;-75
2023/01/15 05:13:28;;;;;;;;;;;;;;;5.2;96.20215;99716.83;;;;-78
2023/01/15 05:18:23;;;;;;;6;1;;;;;;;;;;;;;-76
2023/01/15 05:18:52;;;;;;;;;;;;;;;5.18;95.1416;99708.27;;;;-76
2023/01/15 05:23:26;;;;;;;;;;;;;;;5.21;94.29199;99717.69;;;;-76
2023/01/15 05:28:29;;;;;;;;;;;;;;;5.14;94.68945;99703.97;;;;-76
2023/01/15 05:33:26;;;;;;;;;;;;;;;5.11;94.85547;99699.11;;;;-77
2023/01/15 05:38:28;;;;;;;;;;;;;;;5.11;92.85352;99686.91;;;;-76
2023/01/15 05:43:27;;;;;;;;;;;;;;;5.03;91.93262;99697.03;;;;-76
2023/01/15 05:48:22;;;;;;;5.3;0.9;;;;;;;;;;;;;-78
2023/01/15 05:48:34;;;;;;;;;;;;;;;5;93.66797;99706.7;;;;-78
2023/01/15 05:53:26;;;;;;;;;;;;;;;5;93.24316;99698.69;;;;-77
2023/01/15 05:58:40;;;;;;;;;;;;;;;4.98;93.43555;99693.64;;;;-77
2023/01/15 06:03:30;;;;;;;;;;;;;;;4.95;94.58301;99692.63;;;;-75
2023/01/15 06:08:26;;;;;;;;;;;;;;;4.93;92.53125;99703.64;;;;-76
2023/01/15 06:13:27;;;;;;;;;;;;;;;4.89;92.06641;99696.19;;;;-77
2023/01/15 06:18:22;;;;;;;8.3;0.9;;;;;;;;;;;;;-76
2023/01/15 06:18:37;;;;;;;;;;;;;;;4.85;90.17676;99708.44;;;;-77
2023/01/15 06:23:27;;;;;;;;;;;;;;;4.78;92.24805;99712.27;;;;-77
2023/01/15 06:28:27;;;;;;;;;;;;;;;4.74;90.91504;99704.5;;;;-75
2023/01/15 06:33:28;;;;;;;;;;;;;;;4.73;91.12891;99717.51;;;;-76
2023/01/15 06:48:25;;;;;;;8.5;1;;;;;;;;;;;;;-77
2023/01/15 06:48:40;;;;;;;;;;;;;;;4.78;91.12988;99701.84;;;;-76
2023/01/15 06:53:26;;;;;;;;;;;;;;;4.78;89.98535;99688.89;;;;-76
2023/01/15 06:58:29;;;;;;;;;;;;;;;4.75;91.70117;99705.09;;;;-76
2023/01/15 07:03:28;;;;;;;;;;;;;;;4.79;90.44629;99704.17;;;;-77
2023/01/15 07:08:26;;;;;;;;;;;;;;;4.79;90.45703;99689.63;;;;-76
2023/01/15 07:13:28;;;;;;;;;;;;;;;4.82;89.56152;99679.21;;;;-77
2023/01/15 07:18:24;;;;;;;5.8;0.8;;;;;;;;;;;;;-77
2023/01/15 07:18:35;;;;;;;;;;;;;;;4.82;89.55957;99679.02;;;;-78
2023/01/15 07:23:26;;;;;;;;;;;;;;;4.77;90.48535;99671.88;;;;-80
2023/01/15 07:28:30;;;;;;;;;;;;;;;4.78;90.79199;99669.08;;;;-77
2023/01/15 07:33:26;;;;;;;;;;;;;;;4.78;91.73926;99652.14;;;;-77
2023/01/15 07:38:26;;;;;;;;;;;;;;;4.82;90.91113;99664.33;;;;-76
2023/01/15 07:53:29;;;;;;;;;;;;;;;4.86;91.88672;99674.95;;;;-77
2023/01/15 07:58:28;;;;;;;;;;;;;;;4.8;93.18945;99661.64;;;;-76
2023/01/15 08:03:26;;;;;;;;;;;;;;;4.72;93.88965;99685.06;;;;-76
2023/01/15 08:08:26;;;;;;;;;;;;;;;4.51;94.59375;99667.81;;;;-75
2023/01/15 08:18:51;;;;;;;;;;;;;;;;;;;;;
2023/01/15 08:30:12;;;;;;;;;;;;;;;4.52;94.8457;99677.04;;;;-75
2023/01/15 08:39:57;;;;;;;;;;;;;;;;;;;;;
2023/01/15 08:48:46;;;;;;;;;;;;;;;;;;;;;
2023/01/15 08:49:57;;;;;;;;;;;;;;;4.76;94.78906;99649.44;;;;-77
2023/01/15 08:55:03;;;;;;;;;;;;;;;;;;;;;
2023/01/15 09:06:18;;;;;;;;;;;;;;;4.92;94.15234;99657.59;;;;-75
2023/01/15 09:21:05;;;;;;;;;;;;;;;5.19;93.5332;99639.95;;;;-75
2023/01/15 09:23:49;;;;;;;;;;;;;;;5.19;93.46777;99653.53;;;;-78
2023/01/15 09:30:48;;;;;;;;;;;;;;;5.37;92.75781;99633.31;;;;-74
2023/01/15 09:32:35;;;;;;;;;;;;;;;5.46;92.42871;99651.09;;;;-76
2023/01/15 09:35:23;;;;;;;;;;;;;;;;;;;;;
2023/01/15 09:46:51;;;;;;;;;;;;;;;5.49;92.95898;99644.66;;;;-76
2023/01/15 09:48:52;;;;;;;10.7;1.5;;;;;;;;;;;;;-77
2023/01/15 09:51:48;;;;;;;;;;;;;;;5.59;92.78223;99671.43;;;;-75
2023/01/15 09:54:09;;;;;;;;;;;;;;;5.52;92.81055;99662.27;;;;-76
2023/01/15 09:59:09;;;;;;;;;;;;;;;5.54;93.05469;99689.39;;;;-77
2023/01/15 10:04:10;;;;;;;;;;;;;;;5.57;92.97461;99656.63;;;;-77
2023/01/15 10:09:06;;;;;;;;;;;;;;;5.64;91.48438;99691.48;;;;-78
2023/01/15 10:14:20;;;;;;;;;;;;;;;5.69;91.52832;99680.86;;;;-77
2023/01/15 10:18:39;;;;;;;8.3;1.3;;;;;;;;;;;;;-77
2023/01/15 10:19:18;;;;;;;;;;;;;;;5.74;92.10742;99668.1;;;;-78
2023/01/15 10:24:21;;;;;;;;;;;;;;;5.79;92.11719;99680.79;;;;-76
2023/01/15 10:32:20;;;;;;;;;;;;;;;;;;;;;
2023/01/15 10:37:03;;;;;;;;;;;;;;;5.92;91.38086;99681.87;;;;-77
2023/01/15 10:42:09;;;;;;;;;;;;;;;5.99;91.37207;99680.64;;;;-78
2023/01/15 10:47:11;;;;;;;;;;;;;;;6.05;90.6543;99697.09;;;;-78
2023/01/15 10:56:07;;;;;;;;;;;;;;;6.18;90.53906;99694.39;;;;-75
2023/01/15 11:00:59;;;;;;;;;;;;;;;6.27;90.38281;99708.37;;;;-77
2023/01/15 11:05:45;;;;;;;;;;;;;;;;;;;;;
2023/01/15 11:10:29;;;;;;;;;;;;;;;6.12;90.56055;99695.56;;;;-76
2023/01/15 11:20:36;;;;;;;;;;;;;;;6.19;90.76074;99709.28;;;;-77
2023/01/15 11:25:43;;;;;;;;;;;;;;;6.23;91.20508;99694.08;;;;-77
2023/01/15 11:30:36;;;;;;;;;;;;;;;6.33;91.65234;99702.02;;;;-77
2023/01/15 11:35:33;;;;;;;;;;;;;;;6.38;90.18945;99704.44;;;;-77
2023/01/15 11:40:27;;;;;;;;;;;;;;;6.4;90.21289;99700.15;;;;-79
2023/01/15 11:55:28;;;;;;;;;;;;;;;6.39;90.35547;99730.11;;;;-77
2023/01/15 12:00:30;;;;;;;;;;;;;;;6.42;90.46973;99711.66;;;;-77
2023/01/15 12:05:43;;;;;;;;;;;;;;;6.44;91.07422;99703.69;;;;-76
2023/01/15 12:11:02;;;;;;;;;;;;;;;6.53;91.20313;99700.64;;;;-78
2023/01/15 12:15:41;;;;;;;;;;;;;;;6.56;91.16699;99705.66;;;;-76
2023/01/15 12:18:47;;;;;;;9.3;1.5;;;;;;;;;;;;;-77
2023/01/15 12:20:35;;;;;;;;;;;;;;;6.6;90.33105;99717.77;;;;-78
2023/01/15 12:25:41;;;;;;;;;;;;;;;6.64;90.13281;99700.34;;;;-78
2023/01/15 12:30:54;;;;;;;;;;;;;;;;;;;;;
2023/01/15 12:35:50;;;;;;;;;;;;;;;6.71;88.60449;99717.76;;;;-77
2023/01/15 12:45:37;;;;;;;;;;;;;;;6.77;89.14258;99700.44;;;;-78
2023/01/15 12:48:35;;;;;;;10.8;1.4;;;;;;;;;;;;;-78
2023/01/15 12:58:37;;;;;;;;;;;;;;;;;;;;;
2023/01/15 13:03:10;;;;;;;;;;;;;;;6.91;89.67578;99685.75;;;;-76
2023/01/15 13:08:09;;;;;;;;;;;;;;;6.85;90.08887;99689.5;;;;-75
2023/01/15 13:19:31;;;;;;;;;;;;;;;6.9;90.40625;99710.2;;;;-76
2023/01/15 15:33:42;;;;;;;;;;;;;;;5.65;98.68457;99865.8;;;;-79
2023/01/15 16:18:02;;;;;;;;;;;;;;;5.59;99.86816;99892.06;;;;-75
2023/01/15 16:58:17;;;;;;;;;;;;;;;5.47;100;99919.05;;;;-73
2023/01/15 18:10:09;;;;;;;;;;;;;;;5.31;100;99916.05;;;;-79
2023/01/15 18:15:08;;;;;;;;;;;;;;;5.32;100;99916.84;;;;-77
2023/01/15 18:19:10;;;;;;;;;;;;;;;5.4;100;99912.48;;;;-78
2023/01/15 20:57:26;;;;;;;;;;;;;;;;;;;;;
2023/01/15 21:09:52;;;;;;;;;;;;;;;4.54;100;99835.41;;;;-74
2023/01/15 23:24:30;;;;;;;;;;;;;;;3.36;100;99660.2;;;;-75
